PWSweather.com
Personal Weather Stations
Station Observations
DAVIS2016
WorthingGB

WorthingGB

Lat: 50.8130266, Lon: -0.3832443000000012

Elevation: 34.8

Station Type: davis vantage vue 6250

Latest ConditionsUpdated 5:45:00 PM GMT Tuesday, Aug 21, 2018
Currently Today's Max Today's Min Today's Average
Temperature 66.7°F19.3°C 69.9°F21.1°C 65.7°F18.7°C 67.5°F19.7°C
Dew Point 61.7°F16.5°C 64.6°F18.1°C 61.1°F16.2°C 62.8°F17.1°C
Winds 3.0 mph SW4.8 kmh SW 9.0 mph -14.5 kmh - - 4.1 mph 6.6 kmh
Wind Gusts 10.0 mph16.1 kmh 18.0 mph29.0 kmh - -
Humidity 84% 95% 78% 85%
Pressure 30.06 in1017.9 mb 30.12 in1020.0 mb 30.06 in1017.9 mb -
Hour Temp Dew Point Humidity Winds Wind Gusts Pressure Precip Precip Rate Daily Precip Total
05:45 PM 66.7°F19.3°C 61.7°F16.5°C 84% 3.0 mph SW4.8 kmh SW 10.0 mph16.1 kmh 30.06 in1017.9 mb 0.00 in0.0 mm 0.00 in0.0 mm 0.00 in0.0 mm
05:30 PM 66.5°F19.2°C 61.5°F16.4°C 84% 5.0 mph SW8.0 kmh SW 12.0 mph19.3 kmh 30.06 in1017.9 mb 0.00 in0.0 mm 0.00 in0.0 mm 0.00 in0.0 mm
05:15 PM 66.7°F19.3°C 61.7°F16.5°C 84% 4.0 mph SW6.4 kmh SW 13.0 mph20.9 kmh 30.06 in1017.9 mb 0.00 in0.0 mm 0.00 in0.0 mm 0.00 in0.0 mm
05:00 PM 67.1°F19.5°C 61.4°F16.3°C 82% 4.0 mph WSW6.4 kmh WSW 14.0 mph22.5 kmh 30.06 in1017.9 mb 0.00 in0.0 mm 0.00 in0.0 mm 0.00 in0.0 mm
04:45 PM 67.6°F19.8°C 61.9°F16.6°C 82% 4.0 mph SW6.4 kmh SW 12.0 mph19.3 kmh 30.06 in1017.9 mb 0.00 in0.0 mm 0.00 in0.0 mm 0.00 in0.0 mm
04:30 PM 67.9°F19.9°C 61.9°F16.6°C 81% 4.0 mph SW6.4 kmh SW 9.0 mph14.5 kmh 30.07 in1018.3 mb 0.00 in0.0 mm 0.00 in0.0 mm 0.00 in0.0 mm
04:15 PM 67.5°F19.7°C 61.8°F16.6°C 82% 5.0 mph SW8.0 kmh SW 12.0 mph19.3 kmh 30.07 in1018.3 mb 0.00 in0.0 mm 0.00 in0.0 mm 0.00 in0.0 mm
04:00 PM 67.2°F19.6°C 61.5°F16.4°C 82% 8.0 mph SW12.9 kmh SW 15.0 mph24.1 kmh 30.08 in1018.6 mb 0.00 in0.0 mm 0.00 in0.0 mm 0.00 in0.0 mm
03:45 PM 67.5°F19.7°C 61.5°F16.4°C 81% 7.0 mph SW11.3 kmh SW 12.0 mph19.3 kmh 30.08 in1018.6 mb 0.00 in0.0 mm 0.00 in0.0 mm 0.00 in0.0 mm
03:30 PM 67.9°F19.9°C 61.1°F16.2°C 79% 5.0 mph SW8.0 kmh SW 14.0 mph22.5 kmh 30.08 in1018.6 mb 0.00 in0.0 mm 0.00 in0.0 mm 0.00 in0.0 mm
03:15 PM 68.3°F20.2°C 61.5°F16.4°C 79% 5.0 mph SW8.0 kmh SW 12.0 mph19.3 kmh 30.08 in1018.6 mb 0.00 in0.0 mm 0.00 in0.0 mm 0.00 in0.0 mm
03:00 PM 68.3°F20.2°C 61.5°F16.4°C 79% 5.0 mph SSW8.0 kmh SSW 11.0 mph17.7 kmh 30.09 in1019.0 mb 0.00 in0.0 mm 0.00 in0.0 mm 0.00 in0.0 mm
02:45 PM 68.6°F20.3°C 61.5°F16.4°C 78% 4.0 mph SW6.4 kmh SW 12.0 mph19.3 kmh 30.09 in1019.0 mb 0.00 in0.0 mm 0.00 in0.0 mm 0.00 in0.0 mm
02:30 PM 68.2°F20.1°C 61.4°F16.3°C 79% 6.0 mph SW9.7 kmh SW 13.0 mph20.9 kmh 30.09 in1019.0 mb 0.00 in0.0 mm 0.00 in0.0 mm 0.00 in0.0 mm
02:15 PM 68.2°F20.1°C 61.4°F16.3°C 79% 6.0 mph SW9.7 kmh SW 13.0 mph20.9 kmh 30.09 in1019.0 mb 0.00 in0.0 mm 0.00 in0.0 mm 0.00 in0.0 mm
02:00 PM 68.8°F20.4°C 61.7°F16.5°C 78% 5.0 mph SW8.0 kmh SW 13.0 mph20.9 kmh 30.10 in1019.3 mb 0.00 in0.0 mm 0.00 in0.0 mm 0.00 in0.0 mm
01:45 PM 68.7°F20.4°C 61.9°F16.6°C 79% 5.0 mph SW8.0 kmh SW 12.0 mph19.3 kmh 30.10 in1019.3 mb 0.00 in0.0 mm 0.00 in0.0 mm 0.00 in0.0 mm
01:30 PM 68.7°F20.4°C 61.9°F16.6°C 79% 6.0 mph SW9.7 kmh SW 14.0 mph22.5 kmh 30.10 in1019.3 mb 0.00 in0.0 mm 0.00 in0.0 mm 0.00 in0.0 mm
01:15 PM 68.4°F20.2°C 61.6°F16.4°C 79% 6.0 mph SW9.7 kmh SW 12.0 mph19.3 kmh 30.10 in1019.3 mb 0.00 in0.0 mm 0.00 in0.0 mm 0.00 in0.0 mm
01:00 PM 67.7°F19.8°C 61.3°F16.3°C 80% 6.0 mph SW9.7 kmh SW 13.0 mph20.9 kmh 30.11 in1019.6 mb 0.00 in0.0 mm 0.00 in0.0 mm 0.00 in0.0 mm
12:45 PM 67.7°F19.8°C 62.0°F16.7°C 82% 4.0 mph SW6.4 kmh SW 11.0 mph17.7 kmh 30.11 in1019.6 mb 0.00 in0.0 mm 0.00 in0.0 mm 0.00 in0.0 mm
12:30 PM 66.9°F19.4°C 61.9°F16.6°C 84% 6.0 mph SW9.7 kmh SW 14.0 mph22.5 kmh 30.11 in1019.6 mb 0.00 in0.0 mm 0.00 in0.0 mm 0.00 in0.0 mm
12:15 PM 67.4°F19.7°C 62.1°F16.7°C 83% 5.0 mph SW8.0 kmh SW 12.0 mph19.3 kmh 30.11 in1019.6 mb 0.00 in0.0 mm 0.00 in0.0 mm 0.00 in0.0 mm
12:00 PM 67.7°F19.8°C 61.7°F16.5°C 81% 5.0 mph SW8.0 kmh SW 15.0 mph24.1 kmh 30.11 in1019.6 mb 0.00 in0.0 mm 0.00 in0.0 mm 0.00 in0.0 mm
11:45 AM 67.1°F19.5°C 61.4°F16.3°C 82% 9.0 mph SW14.5 kmh SW 18.0 mph29.0 kmh 30.12 in1020.0 mb 0.00 in0.0 mm 0.00 in0.0 mm 0.00 in0.0 mm
11:30 AM 68.2°F20.1°C 62.1°F16.7°C 81% 6.0 mph SW9.7 kmh SW 14.0 mph22.5 kmh 30.12 in1020.0 mb 0.00 in0.0 mm 0.00 in0.0 mm 0.00 in0.0 mm
11:15 AM 68.8°F20.4°C 62.7°F17.1°C 81% 6.0 mph SW9.7 kmh SW 12.0 mph19.3 kmh 30.12 in1020.0 mb 0.00 in0.0 mm 0.00 in0.0 mm 0.00 in0.0 mm
11:00 AM 68.4°F20.2°C 62.3°F16.8°C 81% 7.0 mph SW11.3 kmh SW 13.0 mph20.9 kmh 30.12 in1020.0 mb 0.00 in0.0 mm 0.00 in0.0 mm 0.00 in0.0 mm
10:45 AM 69.2°F20.7°C 62.4°F16.9°C 79% 5.0 mph SW8.0 kmh SW 13.0 mph20.9 kmh 30.12 in1020.0 mb 0.00 in0.0 mm 0.00 in0.0 mm 0.00 in0.0 mm
10:15 AM 68.9°F20.5°C 63.2°F17.3°C 82% 6.0 mph SW9.7 kmh SW 13.0 mph20.9 kmh 30.12 in1020.0 mb 0.00 in0.0 mm 0.00 in0.0 mm 0.00 in0.0 mm
09:45 AM 69.9°F21.1°C 63.8°F17.7°C 81% 4.0 mph SW6.4 kmh SW 12.0 mph19.3 kmh 30.12 in1020.0 mb 0.00 in0.0 mm 0.00 in0.0 mm 0.00 in0.0 mm
09:15 AM 69.6°F20.9°C 64.5°F18.1°C 84% 4.0 mph SW6.4 kmh SW 10.0 mph16.1 kmh 30.12 in1020.0 mb 0.00 in0.0 mm 0.00 in0.0 mm 0.00 in0.0 mm
08:45 AM 68.4°F20.2°C 64.0°F17.8°C 86% 4.0 mph SW6.4 kmh SW 10.0 mph16.1 kmh 30.12 in1020.0 mb 0.00 in0.0 mm 0.00 in0.0 mm 0.00 in0.0 mm
08:30 AM 68.6°F20.3°C 63.2°F17.3°C 83% 5.0 mph SW8.0 kmh SW 13.0 mph20.9 kmh 30.12 in1020.0 mb 0.00 in0.0 mm 0.00 in0.0 mm 0.00 in0.0 mm
08:15 AM 67.8°F19.9°C 64.4°F18.0°C 89% 4.0 mph SW6.4 kmh SW 12.0 mph19.3 kmh 30.12 in1020.0 mb 0.00 in0.0 mm 0.00 in0.0 mm 0.00 in0.0 mm
08:00 AM 68.7°F20.4°C 63.3°F17.4°C 83% 5.0 mph SW8.0 kmh SW 13.0 mph20.9 kmh 30.12 in1020.0 mb 0.00 in0.0 mm 0.00 in0.0 mm 0.00 in0.0 mm
07:45 AM 67.5°F19.7°C 64.5°F18.1°C 90% 3.0 mph WSW4.8 kmh WSW 8.0 mph12.9 kmh 30.11 in1019.6 mb 0.00 in0.0 mm 0.00 in0.0 mm 0.00 in0.0 mm
07:15 AM 66.9°F19.4°C 63.9°F17.7°C 90% 3.0 mph WSW4.8 kmh WSW 7.0 mph11.3 kmh 30.11 in1019.6 mb 0.00 in0.0 mm 0.00 in0.0 mm 0.00 in0.0 mm
06:45 AM 67.0°F19.4°C 64.6°F18.1°C 92% 2.0 mph WSW3.2 kmh WSW 6.0 mph9.7 kmh 30.11 in1019.6 mb 0.00 in0.0 mm 0.00 in0.0 mm 0.00 in0.0 mm
06:15 AM 66.4°F19.1°C 64.6°F18.1°C 94% 1.0 mph SW1.6 kmh SW 5.0 mph8.0 kmh 30.11 in1019.6 mb 0.00 in0.0 mm 0.00 in0.0 mm 0.00 in0.0 mm
06:00 AM 68.6°F20.3°C 63.2°F17.3°C 83% 5.0 mph SW8.0 kmh SW 13.0 mph20.9 kmh 30.12 in1020.0 mb 0.00 in0.0 mm 0.00 in0.0 mm 0.00 in0.0 mm
05:45 AM 66.1°F18.9°C 64.3°F17.9°C 94% 1.0 mph WSW1.6 kmh WSW 4.0 mph6.4 kmh 30.11 in1019.6 mb 0.00 in0.0 mm 0.00 in0.0 mm 0.00 in0.0 mm
05:15 AM 65.9°F18.8°C 64.1°F17.8°C 94% Calm Calm 3.0 mph4.8 kmh 30.10 in1019.3 mb 0.00 in0.0 mm 0.00 in0.0 mm 0.00 in0.0 mm
04:45 AM 65.8°F18.8°C 64.0°F17.8°C 94% Calm Calm 1.0 mph1.6 kmh 30.10 in1019.3 mb 0.00 in0.0 mm 0.00 in0.0 mm 0.00 in0.0 mm
04:15 AM 65.9°F18.8°C 64.1°F17.8°C 94% Calm Calm 2.0 mph3.2 kmh 30.09 in1019.0 mb 0.00 in0.0 mm 0.00 in0.0 mm 0.00 in0.0 mm
03:45 AM 65.8°F18.8°C 64.0°F17.8°C 94% Calm Calm 1.0 mph1.6 kmh 30.09 in1019.0 mb 0.00 in0.0 mm 0.00 in0.0 mm 0.00 in0.0 mm
03:15 AM 65.7°F18.7°C 63.9°F17.7°C 94% 1.0 mph W1.6 kmh W 4.0 mph6.4 kmh 30.09 in1019.0 mb 0.00 in0.0 mm 0.00 in0.0 mm 0.00 in0.0 mm
02:45 AM 65.8°F18.8°C 64.0°F17.8°C 94% 1.0 mph W1.6 kmh W 4.0 mph6.4 kmh 30.10 in1019.3 mb 0.00 in0.0 mm 0.00 in0.0 mm 0.00 in0.0 mm
02:15 AM 65.9°F18.8°C 64.4°F18.0°C 95% 2.0 mph WSW3.2 kmh WSW 7.0 mph11.3 kmh 30.10 in1019.3 mb 0.00 in0.0 mm 0.00 in0.0 mm 0.00 in0.0 mm
01:45 AM 66.0°F18.9°C 64.5°F18.1°C 95% 2.0 mph WSW3.2 kmh WSW 6.0 mph9.7 kmh 30.10 in1019.3 mb 0.00 in0.0 mm 0.00 in0.0 mm 0.00 in0.0 mm
01:15 AM 66.1°F18.9°C 64.6°F18.1°C 95% 2.0 mph WSW3.2 kmh WSW 10.0 mph16.1 kmh 30.10 in1019.3 mb 0.00 in0.0 mm 0.00 in0.0 mm 0.00 in0.0 mm
12:45 AM 66.2°F19.0°C 64.4°F18.0°C 94% 3.0 mph WSW4.8 kmh WSW 8.0 mph12.9 kmh 30.10 in1019.3 mb 0.00 in0.0 mm 0.00 in0.0 mm 0.00 in0.0 mm
12:15 AM 66.3°F19.1°C 64.5°F18.1°C 94% 2.0 mph WSW3.2 kmh WSW 5.0 mph8.0 kmh 30.11 in1019.6 mb 0.00 in0.0 mm 0.00 in0.0 mm 0.00 in0.0 mm